createdAt,value
2019-05-11T00:02:11.762Z,96.70
2019-05-11T00:04:39.160Z,96.40
2019-05-11T00:07:06.412Z,96.50
2019-05-11T00:09:34.074Z,96.50
2019-05-11T00:12:01.487Z,96.10
2019-05-11T00:14:29.008Z,96.00
2019-05-11T00:16:56.255Z,96.00
2019-05-11T00:19:23.456Z,96.40
2019-05-11T00:21:51.013Z,96.70
2019-05-11T00:24:18.669Z,96.80
2019-05-11T00:26:46.016Z,96.80
2019-05-11T00:29:13.386Z,97.00
2019-05-11T00:31:41.009Z,97.00
2019-05-11T00:34:08.351Z,96.70
2019-05-11T00:36:35.592Z,96.70
2019-05-11T00:39:05.600Z,96.80
2019-05-11T00:41:32.858Z,96.90
2019-05-11T00:44:00.172Z,96.80
2019-05-11T00:46:27.666Z,97.00
2019-05-11T00:48:55.073Z,96.90
2019-05-11T00:51:22.334Z,96.80
2019-05-11T00:53:49.817Z,96.50
2019-05-11T00:56:17.578Z,97.00
2019-05-11T00:58:44.828Z,96.80
2019-05-11T01:01:11.977Z,97.00
2019-05-11T01:03:39.221Z,97.10
2019-05-11T01:06:06.618Z,96.70
2019-05-11T01:08:34.024Z,96.70
2019-05-11T01:11:01.559Z,96.50
2019-05-11T01:13:28.797Z,96.90
2019-05-11T01:15:56.080Z,97.00
2019-05-11T01:18:23.598Z,96.70
2019-05-11T01:20:51.034Z,96.70
2019-05-11T01:23:18.458Z,97.00
2019-05-11T01:25:45.882Z,97.30
2019-05-11T01:28:14.162Z,97.10
2019-05-11T01:30:41.718Z,97.10
2019-05-11T01:33:09.309Z,96.60
2019-05-11T01:35:36.774Z,96.50
2019-05-11T01:38:04.551Z,96.60
2019-05-11T01:40:31.762Z,97.10
2019-05-11T01:42:58.971Z,97.40
2019-05-11T01:45:26.310Z,97.20
2019-05-11T01:47:53.707Z,97.40
2019-05-11T01:50:21.108Z,97.30
2019-05-11T01:52:48.422Z,97.40
2019-05-11T01:55:15.795Z,97.50
2019-05-11T01:57:43.475Z,97.60
2019-05-11T02:00:11.845Z,97.50
2019-05-11T02:02:39.957Z,97.70
2019-05-11T02:05:25.776Z,97.90
2019-05-11T02:07:54.252Z,97.90
2019-05-11T02:10:21.550Z,97.50
2019-05-11T02:12:49.182Z,97.70
2019-05-11T02:15:16.572Z,97.20
2019-05-11T02:17:43.988Z,97.90
2019-05-11T02:20:11.893Z,97.60
2019-05-11T02:22:39.238Z,97.20
2019-05-11T02:25:07.055Z,97.00
2019-05-11T02:27:34.495Z,97.40
2019-05-11T02:30:01.921Z,97.50
2019-05-11T02:32:29.198Z,97.40
2019-05-11T02:34:56.550Z,97.70
2019-05-11T02:37:23.871Z,97.60
2019-05-11T02:39:51.259Z,97.70
2019-05-11T02:42:18.500Z,98.00
2019-05-11T02:44:45.887Z,97.80
2019-05-11T02:47:13.589Z,97.80
2019-05-11T02:49:41.014Z,98.00
2019-05-11T02:52:09.031Z,97.70
2019-05-11T02:54:37.188Z,98.10
2019-05-11T02:57:04.698Z,97.90
2019-05-11T02:59:31.812Z,97.80
2019-05-11T03:01:59.210Z,97.60
2019-05-11T03:04:26.962Z,97.40
2019-05-11T03:06:54.353Z,97.60
2019-05-11T03:09:22.248Z,97.70
2019-05-11T03:11:55.626Z,97.30
2019-05-11T03:14:18.667Z,97.40
2019-05-11T03:16:47.840Z,97.40
2019-05-11T03:19:15.316Z,97.40
2019-05-11T03:21:42.622Z,97.30
2019-05-11T03:24:10.091Z,97.30
2019-05-11T03:26:37.542Z,97.20
2019-05-11T03:29:04.754Z,97.00
2019-05-11T03:31:32.985Z,97.00
2019-05-11T03:34:00.341Z,97.10
2019-05-11T03:36:28.522Z,97.10
2019-05-11T03:38:55.905Z,97.00
2019-05-11T03:41:23.186Z,97.40
2019-05-11T03:43:50.589Z,97.50
2019-05-11T03:46:17.719Z,97.30
2019-05-11T03:48:44.950Z,97.40
2019-05-11T03:51:12.348Z,97.60
2019-05-11T03:53:39.565Z,97.60
2019-05-11T03:56:07.008Z,97.40
2019-05-11T03:58:34.394Z,97.60
2019-05-11T04:01:01.620Z,97.70
2019-05-11T04:03:28.732Z,97.70
2019-05-11T04:05:56.079Z,97.60
2019-05-11T04:08:23.526Z,97.70
2019-05-11T04:10:50.921Z,97.60
2019-05-11T04:13:18.420Z,97.50
2019-05-11T04:15:46.281Z,97.60
2019-05-11T04:18:13.389Z,97.80
2019-05-11T04:20:40.813Z,97.90
2019-05-11T04:23:08.086Z,98.10
2019-05-11T04:25:35.396Z,98.20
2019-05-11T04:28:02.896Z,97.70
2019-05-11T04:30:30.524Z,97.80
2019-05-11T04:32:58.044Z,97.80
2019-05-11T04:35:25.418Z,97.70
2019-05-11T04:37:52.855Z,97.80
2019-05-11T04:40:20.082Z,97.70
2019-05-11T04:42:55.026Z,97.40
2019-05-11T04:45:16.704Z,97.10
2019-05-11T04:47:44.047Z,97.50
2019-05-11T04:50:11.661Z,97.90
2019-05-11T04:52:38.916Z,98.10
2019-05-11T04:55:06.412Z,97.70
2019-05-11T04:57:33.705Z,97.80
2019-05-11T05:00:00.942Z,97.90
2019-05-11T05:02:28.268Z,97.90
2019-05-11T05:04:56.628Z,97.90
2019-05-11T05:07:24.254Z,98.10
2019-05-11T05:09:51.474Z,98.20
2019-05-11T05:12:18.762Z,98.20
2019-05-11T05:14:46.457Z,98.50
2019-05-11T05:17:13.962Z,98.50
2019-05-11T05:19:42.293Z,98.10
2019-05-11T05:22:09.693Z,98.20
2019-05-11T05:24:36.943Z,98.40
2019-05-11T05:27:04.343Z,98.40
2019-05-11T05:29:31.530Z,98.60
2019-05-11T05:31:58.890Z,98.40
2019-05-11T05:34:26.088Z,98.00
2019-05-11T05:36:54.230Z,98.10
2019-05-11T05:39:21.588Z,98.40
2019-05-11T05:41:56.654Z,98.10
2019-05-11T05:44:17.962Z,98.20
2019-05-11T05:46:45.525Z,97.80
2019-05-11T05:49:12.922Z,98.60
2019-05-11T05:51:40.168Z,99.40
2019-05-11T05:54:07.547Z,99.40
2019-05-11T05:56:34.874Z,99.40
2019-05-11T05:59:02.098Z,99.40
2019-05-11T06:01:29.440Z,99.40
2019-05-11T06:03:56.938Z,99.40
2019-05-11T06:06:24.515Z,99.40
2019-05-11T06:08:51.978Z,99.40
2019-05-11T06:11:19.284Z,99.40
2019-05-11T06:13:46.492Z,99.40
2019-05-11T06:16:13.802Z,99.40
2019-05-11T06:18:41.059Z,98.90
2019-05-11T06:21:08.294Z,99.40
2019-05-11T06:23:36.217Z,99.30
2019-05-11T06:26:03.658Z,99.10
2019-05-11T06:28:32.102Z,99.40
2019-05-11T06:30:59.822Z,99.40
2019-05-11T06:33:27.092Z,99.20
2019-05-11T06:35:54.277Z,98.70
2019-05-11T06:38:21.622Z,98.80
2019-05-11T06:40:48.993Z,98.20
2019-05-11T06:43:16.466Z,98.50
2019-05-11T06:45:43.895Z,99.20
2019-05-11T06:48:11.243Z,98.40
2019-05-11T06:50:38.472Z,97.70
2019-05-11T06:53:05.816Z,97.90
2019-05-11T06:55:33.324Z,97.80
2019-05-11T06:58:00.722Z,97.90
2019-05-11T07:00:28.193Z,97.20
2019-05-11T07:02:55.481Z,96.80
2019-05-11T07:05:22.768Z,96.60
2019-05-11T07:07:50.024Z,95.60
2019-05-11T07:10:17.655Z,95.20
2019-05-11T07:12:45.051Z,95.70
2019-05-11T07:15:12.800Z,95.00
2019-05-11T07:17:40.432Z,94.00
2019-05-11T07:20:08.762Z,94.20
2019-05-11T07:22:37.104Z,93.10
2019-05-11T07:25:04.637Z,93.40
2019-05-11T07:27:32.022Z,93.00
2019-05-11T07:29:59.361Z,92.80
2019-05-11T07:32:29.348Z,93.20
2019-05-11T07:34:57.903Z,91.90
2019-05-11T07:37:27.823Z,92.80
2019-05-11T07:39:54.426Z,92.70
2019-05-11T07:42:21.770Z,90.60
2019-05-11T07:44:49.354Z,90.70
2019-05-11T07:47:18.729Z,89.80
2019-05-11T07:49:48.704Z,88.40
2019-05-11T07:52:15.349Z,87.90
2019-05-11T07:54:42.662Z,86.10
2019-05-11T07:57:10.195Z,86.50
2019-05-11T07:59:38.212Z,84.50
2019-05-11T08:02:05.692Z,86.10
2019-05-11T08:04:33.053Z,85.40
2019-05-11T08:07:00.559Z,85.60
2019-05-11T08:09:28.114Z,85.00
2019-05-11T08:11:55.542Z,84.60
2019-05-11T08:14:22.949Z,84.20
2019-05-11T08:16:50.318Z,83.90
2019-05-11T08:19:18.531Z,84.20
2019-05-11T08:21:48.040Z,84.20
2019-05-11T08:24:17.847Z,84.40
2019-05-11T08:26:44.941Z,83.10
2019-05-11T08:29:13.336Z,82.90
2019-05-11T08:31:40.592Z,82.80
2019-05-11T08:34:08.894Z,82.40
2019-05-11T08:36:37.822Z,82.10
2019-05-11T08:39:07.738Z,82.70
2019-05-11T08:41:38.217Z,80.50
2019-05-11T08:44:05.484Z,81.10
2019-05-11T08:46:32.911Z,81.10
2019-05-11T08:49:00.322Z,80.70
2019-05-11T08:51:28.108Z,79.30
2019-05-11T08:53:55.629Z,80.40
2019-05-11T08:56:23.243Z,77.90
2019-05-11T08:58:50.455Z,78.40
2019-05-11T09:01:18.315Z,77.90
2019-05-11T09:03:47.775Z,81.80
2019-05-11T09:06:17.660Z,83.80
2019-05-11T09:08:44.680Z,84.30
2019-05-11T09:11:11.882Z,84.60
2019-05-11T09:13:39.475Z,83.20
2019-05-11T09:16:07.865Z,81.50
2019-05-11T09:18:35.257Z,82.50
2019-05-11T09:21:02.456Z,81.00
2019-05-11T09:23:36.956Z,81.50
2019-05-11T09:25:58.842Z,79.90
2019-05-11T09:28:26.354Z,81.30
2019-05-11T09:30:53.674Z,79.50
2019-05-11T09:33:21.029Z,76.20
2019-05-11T09:35:53.111Z,73.90
2019-05-11T09:38:18.592Z,74.10
2019-05-11T09:40:48.030Z,72.60
2019-05-11T09:43:17.707Z,71.00
2019-05-11T09:45:48.739Z,71.00
2019-05-11T09:48:13.957Z,71.00
2019-05-11T09:50:41.309Z,70.30
2019-05-11T09:53:08.702Z,70.30
2019-05-11T09:55:36.033Z,71.00
2019-05-11T09:58:03.515Z,70.60
2019-05-11T10:00:31.749Z,71.10
2019-05-11T10:02:59.207Z,68.80
2019-05-11T10:05:28.602Z,68.60
2019-05-11T10:07:58.718Z,67.10
2019-05-11T10:10:25.345Z,67.80
2019-05-11T10:12:53.039Z,66.50
2019-05-11T10:15:20.482Z,66.70
2019-05-11T10:17:48.371Z,67.20
2019-05-11T10:20:17.536Z,67.60
2019-05-11T10:22:44.835Z,66.30
2019-05-11T10:25:12.122Z,65.50
2019-05-11T10:27:39.528Z,65.70
2019-05-11T10:30:08.385Z,64.50
2019-05-11T10:32:37.903Z,65.10
2019-05-11T10:35:07.982Z,65.40
2019-05-11T10:37:35.220Z,65.10
2019-05-11T10:40:02.570Z,65.80
2019-05-11T10:42:30.676Z,66.50
2019-05-11T10:44:59.080Z,65.70
2019-05-11T10:47:27.807Z,65.40
2019-05-11T10:49:57.704Z,64.30
2019-05-11T10:52:24.412Z,64.20
2019-05-11T10:54:51.790Z,64.40
2019-05-11T10:57:19.217Z,65.80
2019-05-11T10:59:48.883Z,64.20
2019-05-11T11:02:18.501Z,65.20
2019-05-11T11:04:45.666Z,64.90
2019-05-11T11:07:16.273Z,65.30
2019-05-11T11:09:42.619Z,64.70
2019-05-11T11:12:09.906Z,65.60
2019-05-11T11:14:37.743Z,65.60
2019-05-11T11:17:05.677Z,67.10
2019-05-11T11:19:33.114Z,66.30
2019-05-11T11:22:22.466Z,66.10
2019-05-11T11:24:29.978Z,65.30
2019-05-11T11:26:57.612Z,65.60
2019-05-11T11:29:25.195Z,65.90
2019-05-11T11:31:52.436Z,65.10
2019-05-11T11:34:19.816Z,65.70
2019-05-11T11:36:48.344Z,64.50
2019-05-11T11:39:15.689Z,64.60
2019-05-11T11:41:42.864Z,65.00
2019-05-11T11:44:10.630Z,64.60
2019-05-11T11:46:50.927Z,63.60
2019-05-11T11:49:08.256Z,64.70
2019-05-11T11:51:37.812Z,65.20
2019-05-11T11:54:05.473Z,65.00
2019-05-11T11:56:32.955Z,65.40
2019-05-11T11:59:00.555Z,65.20
2019-05-11T12:01:28.207Z,65.30
2019-05-11T12:03:57.942Z,65.10
2019-05-11T12:06:25.013Z,64.80
2019-05-11T12:08:52.581Z,66.70
2019-05-11T12:11:20.172Z,71.00
2019-05-11T12:13:47.764Z,71.50
2019-05-11T12:16:18.106Z,70.80
2019-05-11T12:18:45.721Z,69.80
2019-05-11T12:21:13.146Z,67.50
2019-05-11T12:23:40.395Z,65.20
2019-05-11T12:26:08.470Z,65.50
2019-05-11T12:28:38.045Z,63.90
2019-05-11T12:31:05.114Z,64.20
2019-05-11T12:33:32.712Z,65.10
2019-05-11T12:36:00.127Z,64.30
2019-05-11T12:38:27.737Z,64.20
2019-05-11T12:40:57.717Z,65.10
2019-05-11T12:43:24.521Z,63.30
2019-05-11T12:45:52.346Z,65.00
2019-05-11T12:48:19.732Z,64.80
2019-05-11T12:50:48.492Z,63.10
2019-05-11T12:53:18.415Z,62.60
2019-05-11T12:55:45.666Z,62.40
2019-05-11T12:58:12.985Z,62.30
2019-05-11T13:00:40.599Z,63.50
2019-05-11T13:03:08.170Z,64.50
2019-05-11T13:05:37.796Z,64.20
2019-05-11T13:08:05.254Z,65.40
2019-05-11T13:10:32.605Z,66.50
2019-05-11T13:13:02.585Z,66.80
2019-05-11T13:15:29.098Z,66.90
2019-05-11T13:17:58.142Z,66.60
2019-05-11T13:20:25.305Z,66.50
2019-05-11T13:22:52.771Z,72.00
2019-05-11T13:25:20.010Z,74.10
2019-05-11T13:27:49.158Z,77.30
2019-05-11T13:30:18.390Z,77.50
2019-05-11T13:32:48.741Z,78.40
2019-05-11T13:35:17.795Z,80.30
2019-05-11T13:37:45.287Z,81.20
2019-05-11T13:40:13.436Z,81.20
2019-05-11T13:42:40.705Z,83.40
2019-05-11T13:45:08.672Z,84.30
2019-05-11T13:47:49.370Z,82.30
2019-05-11T13:50:07.610Z,83.60
2019-05-11T13:52:35.225Z,82.00
2019-05-11T13:55:02.764Z,83.40
2019-05-11T13:57:30.261Z,84.10
2019-05-11T13:59:58.617Z,80.70
2019-05-11T14:02:25.831Z,79.60
2019-05-11T14:04:53.195Z,80.60
2019-05-11T14:07:20.592Z,77.30
2019-05-11T14:09:48.526Z,76.70
2019-05-11T14:12:18.246Z,78.40
2019-05-11T14:14:45.569Z,79.10
2019-05-11T14:17:13.018Z,78.50
2019-05-11T14:19:40.348Z,77.80
2019-05-11T14:22:08.650Z,79.20
2019-05-11T14:24:37.635Z,80.30
2019-05-11T14:27:08.605Z,80.10
2019-05-11T14:29:35.601Z,81.00
2019-05-11T14:32:03.138Z,82.60
2019-05-11T14:34:30.906Z,83.20
2019-05-11T14:36:58.367Z,83.50
2019-05-11T14:39:27.826Z,84.40
2019-05-11T14:41:55.304Z,82.80
2019-05-11T14:44:22.765Z,83.10
2019-05-11T14:46:50.090Z,82.70
2019-05-11T14:49:18.382Z,82.20
2019-05-11T14:51:48.432Z,81.50
2019-05-11T14:54:15.119Z,82.10
2019-05-11T14:56:42.376Z,83.40
2019-05-11T14:59:09.873Z,84.00
2019-05-11T15:01:38.197Z,84.10
2019-05-11T15:04:08.740Z,84.70
2019-05-11T15:06:35.508Z,84.50
2019-05-11T15:09:07.791Z,84.60
2019-05-11T15:11:35.163Z,83.90
2019-05-11T15:14:02.792Z,84.60
2019-05-11T15:16:29.985Z,85.40
2019-05-11T15:18:58.568Z,85.90
2019-05-11T15:21:28.008Z,87.50
2019-05-11T15:23:57.948Z,88.10
2019-05-11T15:26:24.746Z,89.10
2019-05-11T15:28:52.117Z,89.30
2019-05-11T15:31:22.327Z,90.10
2019-05-11T15:33:48.964Z,91.00
2019-05-11T15:36:16.287Z,91.60
2019-05-11T15:38:43.697Z,91.40
2019-05-11T15:41:11.064Z,91.80
2019-05-11T15:43:38.851Z,91.60
2019-05-11T15:46:06.337Z,91.60
2019-05-11T15:48:33.705Z,91.00
2019-05-11T15:51:01.041Z,91.10
2019-05-11T15:53:28.408Z,91.00
2019-05-11T15:55:59.565Z,92.80
2019-05-11T15:58:25.105Z,93.30
2019-05-11T16:00:53.330Z,90.40
2019-05-11T16:03:20.777Z,91.70
2019-05-11T16:05:48.192Z,90.50
2019-05-11T16:08:15.684Z,90.90
2019-05-11T16:10:43.004Z,89.90
2019-05-11T16:13:10.549Z,89.30
2019-05-11T16:15:38.436Z,89.60
2019-05-11T16:18:08.354Z,89.70
2019-05-11T16:20:35.967Z,91.50
2019-05-11T16:23:03.191Z,89.30
2019-05-11T16:25:30.449Z,87.20
2019-05-11T16:27:57.952Z,86.20
2019-05-11T16:30:25.317Z,86.50
2019-05-11T16:32:52.668Z,87.70
2019-05-11T16:35:20.408Z,88.40
2019-05-11T16:37:48.580Z,88.20
2019-05-11T16:40:20.201Z,89.30
2019-05-11T16:42:47.758Z,90.10
2019-05-11T16:45:15.231Z,89.10
2019-05-11T16:47:42.851Z,90.90
2019-05-11T16:50:10.264Z,89.90
2019-05-11T16:52:38.711Z,91.00
2019-05-11T16:55:07.903Z,91.00
2019-05-11T16:57:38.016Z,92.00
2019-05-11T17:00:05.256Z,92.10
2019-05-11T17:02:33.749Z,94.10
2019-05-11T17:05:01.363Z,93.20
2019-05-11T17:07:30.039Z,93.50
2019-05-11T17:09:57.858Z,95.20
2019-05-11T17:12:25.090Z,93.90
2019-05-11T17:14:59.079Z,94.60
2019-05-11T17:17:27.798Z,94.30
2019-05-11T17:19:58.937Z,94.60
2019-05-11T17:22:28.815Z,94.80
2019-05-11T17:24:58.786Z,94.60
2019-05-11T17:27:28.335Z,95.30
2019-05-11T17:29:55.145Z,95.40
2019-05-11T17:32:22.274Z,94.50
2019-05-11T17:34:49.752Z,94.30
2019-05-11T17:37:18.371Z,94.50
2019-05-11T17:39:47.515Z,94.30
2019-05-11T17:42:14.910Z,94.40
2019-05-11T17:44:42.649Z,94.20
2019-05-11T17:47:10.109Z,94.30
2019-05-11T17:49:38.354Z,94.40
2019-05-11T17:52:08.007Z,94.30
2019-05-11T17:54:35.070Z,94.50
2019-05-11T17:57:02.758Z,93.90
2019-05-11T17:59:30.556Z,94.00
2019-05-11T18:01:58.114Z,94.60
2019-05-11T18:04:25.587Z,94.50
2019-05-11T18:06:52.905Z,94.30
2019-05-11T18:09:21.216Z,94.50
2019-05-11T18:11:48.648Z,94.00
2019-05-11T18:14:16.032Z,94.20
2019-05-11T18:16:43.559Z,94.60
2019-05-11T18:19:10.894Z,94.60
2019-05-11T18:21:38.854Z,94.40
2019-05-11T18:24:08.904Z,94.60
2019-05-11T18:26:37.611Z,94.30
2019-05-11T18:29:04.700Z,93.90
2019-05-11T18:31:32.082Z,94.60
2019-05-11T18:33:59.349Z,94.70
2019-05-11T18:36:28.917Z,94.40
2019-05-11T18:38:56.536Z,94.20
2019-05-11T18:41:24.074Z,94.00
2019-05-11T18:43:51.429Z,93.90
2019-05-11T18:46:19.153Z,94.80
2019-05-11T18:48:48.605Z,94.20
2019-05-11T18:51:15.837Z,94.40
2019-05-11T18:53:43.255Z,95.00
2019-05-11T18:56:10.460Z,95.40
2019-05-11T18:58:38.393Z,94.60
2019-05-11T19:01:05.770Z,95.70
2019-05-11T19:03:32.910Z,95.60
2019-05-11T19:06:00.177Z,95.80
2019-05-11T19:08:28.009Z,95.70
2019-05-11T19:10:57.910Z,95.50
2019-05-11T19:13:25.010Z,95.60
2019-05-11T19:15:52.379Z,96.30
2019-05-11T19:18:19.744Z,96.70
2019-05-11T19:20:49.311Z,96.60
2019-05-11T19:23:16.286Z,96.30
2019-05-11T19:25:43.669Z,96.70
2019-05-11T19:28:11.287Z,96.10
2019-05-11T19:30:38.654Z,96.20
2019-05-11T19:33:08.185Z,96.50
2019-05-11T19:35:37.709Z,96.10
2019-05-11T19:38:04.780Z,95.80
2019-05-11T19:40:32.995Z,95.90
2019-05-11T19:43:00.365Z,95.70
2019-05-11T19:45:29.326Z,96.30
2019-05-11T19:47:57.786Z,96.00
2019-05-11T19:50:25.456Z,96.20
2019-05-11T19:52:52.748Z,95.70
2019-05-11T19:55:20.103Z,95.30
2019-05-11T19:57:48.268Z,96.00
2019-05-11T20:00:18.170Z,96.40
2019-05-11T20:02:45.077Z,96.30
2019-05-11T20:05:12.450Z,96.50
2019-05-11T20:07:39.937Z,97.00
2019-05-11T20:10:08.055Z,96.40
2019-05-11T20:12:37.627Z,96.30
2019-05-11T20:15:08.092Z,96.60
2019-05-11T20:17:35.374Z,96.40
2019-05-11T20:20:03.123Z,96.40
2019-05-11T20:22:30.208Z,96.60
2019-05-11T20:24:58.122Z,96.30
2019-05-11T20:27:28.064Z,96.30
2019-05-11T20:29:55.341Z,96.30
2019-05-11T20:32:22.638Z,96.70
2019-05-11T20:34:50.079Z,95.70
2019-05-11T20:37:18.239Z,96.30
2019-05-11T20:39:47.995Z,95.40
2019-05-11T20:42:15.055Z,95.50
2019-05-11T20:44:42.964Z,95.80
2019-05-11T20:47:10.188Z,95.50
2019-05-11T20:49:38.630Z,96.00
2019-05-11T20:52:08.536Z,95.70
2019-05-11T20:54:35.234Z,95.80
2019-05-11T20:57:02.570Z,95.70
2019-05-11T20:59:30.010Z,96.20
2019-05-11T21:01:58.650Z,96.30
2019-05-11T21:04:28.256Z,95.50
2019-05-11T21:06:57.985Z,95.80
2019-05-11T21:09:25.285Z,95.70
2019-05-11T21:11:52.770Z,95.50
2019-05-11T21:14:20.496Z,95.60
2019-05-11T21:16:48.000Z,96.10
2019-05-11T21:19:15.356Z,96.00
2019-05-11T21:21:50.111Z,96.10
2019-05-11T21:24:11.898Z,95.70
2019-05-11T21:26:40.681Z,95.60
2019-05-11T21:29:08.589Z,96.20
2019-05-11T21:31:37.791Z,95.50
2019-05-11T21:34:08.185Z,95.60
2019-05-11T21:36:37.871Z,95.70
2019-05-11T21:39:07.941Z,96.60
2019-05-11T21:41:35.405Z,95.90
2019-05-11T21:44:02.689Z,95.20
2019-05-11T21:46:30.102Z,95.40
2019-05-11T21:48:58.288Z,95.00
2019-05-11T21:51:28.393Z,95.40
2019-05-11T21:53:55.227Z,95.40
2019-05-11T21:56:22.460Z,95.40
2019-05-11T21:58:49.797Z,95.50
2019-05-11T22:01:20.050Z,96.00
2019-05-11T22:03:47.881Z,95.80
2019-05-11T22:06:15.847Z,95.40
2019-05-11T22:08:43.396Z,94.90
2019-05-11T22:11:13.962Z,94.80
2019-05-11T22:13:39.836Z,95.20
2019-05-11T22:16:08.655Z,95.00
2019-05-11T22:18:37.900Z,95.60
2019-05-11T22:21:05.314Z,95.40
2019-05-11T22:23:32.752Z,95.30
2019-05-11T22:26:00.193Z,95.80
2019-05-11T22:28:28.484Z,95.90
2019-05-11T22:30:56.077Z,96.00
2019-05-11T22:33:23.413Z,95.60
2019-05-11T22:35:50.837Z,95.40
2019-05-11T22:38:18.177Z,95.30
2019-05-11T22:40:45.782Z,95.90
2019-05-11T22:43:13.259Z,96.00
2019-05-11T22:45:41.394Z,95.70
2019-05-11T22:48:08.798Z,95.30
2019-05-11T22:50:38.238Z,95.80
2019-05-11T22:53:05.750Z,96.00
2019-05-11T22:55:33.061Z,95.90
2019-05-11T22:58:00.134Z,95.20
2019-05-11T23:00:38.270Z,94.90
2019-05-11T23:03:07.676Z,95.10
2019-05-11T23:05:34.982Z,95.20
2019-05-11T23:08:02.498Z,95.30
2019-05-11T23:10:29.941Z,95.10
2019-05-11T23:12:57.504Z,94.90
2019-05-11T23:15:24.800Z,94.50
2019-05-11T23:17:52.121Z,94.50
2019-05-11T23:20:19.389Z,95.00
2019-05-11T23:22:56.136Z,94.70
2019-05-11T23:25:18.245Z,94.20
2019-05-11T23:27:48.236Z,94.80
2019-05-11T23:30:15.501Z,94.30
2019-05-11T23:32:43.072Z,95.00
2019-05-11T23:35:11.055Z,94.10
2019-05-11T23:37:38.799Z,94.40
2019-05-11T23:40:08.924Z,93.90
2019-05-11T23:42:37.665Z,93.70
2019-05-11T23:45:05.412Z,93.70
2019-05-11T23:47:32.874Z,93.80
2019-05-11T23:50:00.322Z,94.00
2019-05-11T23:52:29.534Z,93.80
2019-05-11T23:54:58.894Z,93.90
2019-05-11T23:57:26.322Z,93.60
2019-05-11T23:59:53.765Z,93.70
